Time;durP1;ratioP1;P1;durP2;ratioP2;P2;SDS_P1;SDS_P2;PMS_P1;PMS_P2;Temp;Humidity;BMP_temperature;BMP_pressure;BME280_temperature;BME280_humidity;BME280_pressure;Samples;Min_cycle;Max_cycle;Signal;HPM_P1;HPM_P2
2022/03/27 00:02:06;;;;;;;51.63;15.73;;;8.70;12.50;;;;;;4987413;28;20988;-67
2022/03/27 00:04:33;;;;;;;54.33;17.57;;;8.70;12.70;;;;;;4986585;28;20489;-67
2022/03/27 00:07:00;;;;;;;51.97;14.73;;;8.60;12.60;;;;;;4987015;28;20472;-67
2022/03/27 00:09:27;;;;;;;50.17;14.50;;;8.60;12.70;;;;;;4988615;28;20460;-67
2022/03/27 00:11:54;;;;;;;53.17;16.10;;;8.60;12.70;;;;;;4982826;28;20468;-67
2022/03/27 00:14:21;;;;;;;55.97;14.53;;;8.50;12.80;;;;;;4977315;28;20472;-67
2022/03/27 00:16:48;;;;;;;53.57;15.93;;;8.50;12.90;;;;;;4988164;28;20468;-67
2022/03/27 00:19:16;;;;;;;55.03;16.53;;;8.50;13.00;;;;;;4987478;28;20484;-67
2022/03/27 00:21:44;;;;;;;50.07;15.67;;;8.50;13.10;;;;;;4991649;28;20460;-67
2022/03/27 00:24:11;;;;;;;57.87;16.93;;;8.50;13.30;;;;;;4991283;28;20468;-67
2022/03/27 00:26:38;;;;;;;51.50;16.00;;;8.40;13.00;;;;;;4990728;28;20465;-67
2022/03/27 00:29:05;;;;;;;54.30;16.37;;;8.40;13.10;;;;;;4991688;28;20464;-68
2022/03/27 00:31:35;;;;;;;50.97;16.47;;;8.40;13.00;;;;;;4992594;28;20473;-68
2022/03/27 00:34:03;;;;;;;49.43;14.83;;;8.40;13.10;;;;;;5008740;28;20468;-67
2022/03/27 00:36:31;;;;;;;52.07;16.23;;;8.30;13.30;;;;;;4994425;28;21059;-68
2022/03/27 00:38:58;;;;;;;58.43;14.80;;;8.30;13.40;;;;;;4992484;28;20491;-67
2022/03/27 00:41:25;;;;;;;49.93;15.33;;;8.30;13.70;;;;;;4990558;28;20472;-67
2022/03/27 00:43:52;;;;;;;48.40;16.07;;;8.20;13.70;;;;;;4991386;28;20464;-67
2022/03/27 00:46:19;;;;;;;48.73;15.67;;;8.20;13.80;;;;;;4989439;28;20503;-67
2022/03/27 00:48:46;;;;;;;49.90;14.60;;;8.20;13.80;;;;;;4992225;28;20465;-67
2022/03/27 00:51:13;;;;;;;46.77;14.33;;;8.10;14.00;;;;;;4990492;28;20472;-67
2022/03/27 00:53:41;;;;;;;53.43;15.87;;;8.10;14.10;;;;;;4978139;28;20480;-67
2022/03/27 00:56:08;;;;;;;48.87;15.03;;;8.10;14.10;;;;;;4990991;28;20935;-67
2022/03/27 00:58:34;;;;;;;52.63;16.27;;;8.00;14.10;;;;;;4989528;28;20467;-68
2022/03/27 01:01:05;;;;;;;48.97;16.03;;;8.00;14.20;;;;;;4984989;28;20492;-67
2022/03/27 01:03:33;;;;;;;58.03;16.60;;;7.90;14.40;;;;;;4985821;28;20471;-68
2022/03/27 01:06:00;;;;;;;50.50;15.90;;;7.80;14.40;;;;;;4991931;28;20595;-67
2022/03/27 01:11:16;;;;;;;48.30;16.60;;;7.80;14.50;;;;;;4989824;28;20448;-67
2022/03/27 01:13:48;;;;;;;50.97;14.87;;;7.80;14.60;;;;;;4991016;28;20548;-67
2022/03/27 01:16:32;;;;;;;56.17;17.37;;;7.80;14.60;;;;;;4988419;28;20489;-68
2022/03/27 01:19:00;;;;;;;53.13;15.30;;;7.80;14.70;;;;;;4978584;28;20587;-67
2022/03/27 01:21:28;;;;;;;46.00;14.70;;;7.80;14.70;;;;;;4989327;28;20464;-67
2022/03/27 01:23:56;;;;;;;51.47;13.73;;;7.80;14.70;;;;;;4989453;28;20475;-67
2022/03/27 01:26:23;;;;;;;47.30;14.07;;;7.80;14.60;;;;;;4986150;28;20484;-67
2022/03/27 01:28:50;;;;;;;52.30;15.13;;;7.80;14.80;;;;;;4991024;28;20465;-67
2022/03/27 01:31:18;;;;;;;51.90;13.90;;;7.80;14.70;;;;;;4988962;28;20476;-67
2022/03/27 01:33:44;;;;;;;51.27;15.13;;;7.70;14.90;;;;;;4989141;28;20465;-67
2022/03/27 01:36:11;;;;;;;51.63;15.60;;;7.70;14.90;;;;;;4990909;28;20543;-67
2022/03/27 01:38:39;;;;;;;47.33;15.23;;;7.60;15.00;;;;;;4990929;28;20467;-67
2022/03/27 01:41:06;;;;;;;54.47;18.17;;;7.60;15.20;;;;;;4988944;28;20484;-68
2022/03/27 01:43:33;;;;;;;50.13;16.33;;;7.60;15.30;;;;;;4989816;28;20460;-67
2022/03/27 01:46:00;;;;;;;48.57;14.13;;;7.50;15.30;;;;;;4991217;28;20488;-68
2022/03/27 01:48:27;;;;;;;51.63;14.87;;;7.50;15.60;;;;;;4989339;28;20556;-67
2022/03/27 01:51:00;;;;;;;52.93;16.03;;;7.50;15.40;;;;;;4990550;28;20523;-67
2022/03/27 01:53:27;;;;;;;46.70;15.57;;;7.50;15.60;;;;;;4988894;28;20477;-67
2022/03/27 01:55:55;;;;;;;49.60;15.40;;;7.50;15.50;;;;;;4971114;28;20489;-67
2022/03/27 01:58:22;;;;;;;50.20;15.27;;;7.50;15.60;;;;;;4988019;28;20956;-67
2022/03/27 02:00:50;;;;;;;49.80;15.57;;;7.40;15.70;;;;;;4989412;28;20480;-67
2022/03/27 02:03:16;;;;;;;48.80;14.93;;;7.40;15.80;;;;;;4988636;28;20465;-67
2022/03/27 02:05:44;;;;;;;46.57;15.97;;;7.40;15.70;;;;;;4987712;28;20500;-67
2022/03/27 02:08:12;;;;;;;48.20;15.20;;;7.30;15.80;;;;;;4990637;28;20461;-67
2022/03/27 02:10:41;;;;;;;51.50;15.30;;;7.40;16.00;;;;;;4988461;28;20457;-67
2022/03/27 02:13:14;;;;;;;47.53;16.50;;;7.30;15.90;;;;;;4989499;28;20850;-67
2022/03/27 02:15:41;;;;;;;54.13;17.43;;;7.30;16.00;;;;;;4989278;28;20519;-67
2022/03/27 02:18:09;;;;;;;49.90;15.23;;;7.30;16.20;;;;;;4987588;28;20472;-67
2022/03/27 02:20:36;;;;;;;58.83;18.20;;;7.30;16.00;;;;;;4990567;28;20480;-67
2022/03/27 02:23:03;;;;;;;50.00;15.67;;;7.20;16.10;;;;;;4988190;28;20470;-67
2022/03/27 02:25:30;;;;;;;52.40;17.30;;;7.20;16.30;;;;;;4989599;28;20539;-67
2022/03/27 02:27:57;;;;;;;51.33;16.07;;;7.20;16.20;;;;;;4988250;28;20465;-67
2022/03/27 02:30:25;;;;;;;48.53;15.73;;;7.20;16.30;;;;;;4989878;28;20879;-68
2022/03/27 02:32:52;;;;;;;52.00;17.27;;;7.10;16.20;;;;;;4989543;28;20472;-67
2022/03/27 02:35:19;;;;;;;52.30;17.50;;;7.10;16.50;;;;;;4988343;28;20491;-67
2022/03/27 02:37:46;;;;;;;56.50;16.90;;;7.10;16.50;;;;;;4989853;28;20468;-68
2022/03/27 02:40:13;;;;;;;55.03;16.90;;;7.00;16.60;;;;;;4987319;28;20483;-67
2022/03/27 02:42:40;;;;;;;64.77;17.10;;;7.00;16.80;;;;;;4989114;28;20471;-67
2022/03/27 02:45:09;;;;;;;54.77;16.90;;;7.00;16.80;;;;;;4989401;28;20491;-67
2022/03/27 02:47:37;;;;;;;56.10;17.00;;;7.00;16.50;;;;;;4996900;28;20967;-67
2022/03/27 02:50:05;;;;;;;56.60;17.70;;;6.90;16.80;;;;;;5001354;28;20812;-67
2022/03/27 02:52:33;;;;;;;49.03;15.40;;;6.90;17.00;;;;;;4990486;28;20471;-67
2022/03/27 02:55:00;;;;;;;47.93;16.00;;;6.90;17.00;;;;;;4990184;28;20493;-67
2022/03/27 02:57:27;;;;;;;62.60;17.77;;;6.90;16.90;;;;;;4989382;28;20471;-67
2022/03/27 02:59:54;;;;;;;49.20;16.37;;;6.80;16.90;;;;;;4984333;28;20492;-67
2022/03/27 03:02:22;;;;;;;49.93;16.53;;;6.80;17.20;;;;;;4988732;28;20511;-67
2022/03/27 03:04:51;;;;;;;55.80;15.80;;;6.70;17.70;;;;;;4982736;28;20597;-67
2022/03/27 03:07:18;;;;;;;48.67;15.63;;;6.70;17.30;;;;;;4988918;28;20898;-67
2022/03/27 03:09:45;;;;;;;55.50;17.00;;;6.60;17.30;;;;;;4986561;28;20990;-67
2022/03/27 03:12:13;;;;;;;51.27;16.13;;;6.60;17.40;;;;;;4988920;28;20456;-67
2022/03/27 03:14:39;;;;;;;52.03;16.97;;;6.50;17.50;;;;;;4987221;28;20480;-66
2022/03/27 03:17:08;;;;;;;50.67;16.07;;;6.50;18.10;;;;;;4988208;28;20465;-67
2022/03/27 03:19:35;;;;;;;49.33;16.13;;;6.40;17.60;;;;;;4986976;28;20468;-67
2022/03/27 03:22:04;;;;;;;54.03;15.70;;;6.40;17.80;;;;;;4986446;28;20472;-67
2022/03/27 03:24:31;;;;;;;50.43;15.80;;;6.40;17.90;;;;;;4987698;28;20576;-67
2022/03/27 03:26:58;;;;;;;56.00;16.50;;;6.30;18.20;;;;;;4989523;28;20465;-67
2022/03/27 03:29:25;;;;;;;50.00;17.43;;;6.30;18.20;;;;;;4989258;28;20469;-67
2022/03/27 03:31:52;;;;;;;52.20;17.37;;;6.30;18.30;;;;;;4987367;28;20504;-67
2022/03/27 03:34:18;;;;;;;56.50;18.10;;;6.30;18.30;;;;;;4982978;28;21105;-67
2022/03/27 03:36:45;;;;;;;54.07;16.13;;;6.30;18.20;;;;;;4980003;28;20464;-67
2022/03/27 03:39:13;;;;;;;53.90;17.70;;;6.20;18.60;;;;;;4988462;28;20471;-67
2022/03/27 03:41:40;;;;;;;52.10;16.77;;;6.20;18.30;;;;;;4986701;28;20482;-67
2022/03/27 03:44:08;;;;;;;46.53;16.30;;;6.20;18.30;;;;;;4987469;28;20460;-67
2022/03/27 03:46:35;;;;;;;45.17;15.57;;;6.20;18.20;;;;;;4989204;28;20489;-67
2022/03/27 03:49:06;;;;;;;52.37;16.17;;;6.20;18.20;;;;;;4987045;28;22397;-67
2022/03/27 03:51:34;;;;;;;51.40;16.70;;;6.30;18.20;;;;;;4987477;28;20523;-67
2022/03/27 03:54:00;;;;;;;51.40;15.57;;;6.20;18.30;;;;;;4985435;28;20508;-67
2022/03/27 03:56:28;;;;;;;53.57;18.53;;;6.30;18.30;;;;;;4971091;28;21085;-67
2022/03/27 03:58:55;;;;;;;49.53;14.87;;;6.20;18.20;;;;;;4987021;28;20468;-67
2022/03/27 04:01:22;;;;;;;49.50;14.87;;;6.20;18.20;;;;;;4987783;28;20483;-66
2022/03/27 04:03:49;;;;;;;52.00;16.30;;;6.20;18.50;;;;;;4986510;28;20517;-67
2022/03/27 04:06:16;;;;;;;55.07;16.53;;;6.20;18.30;;;;;;4986831;28;20487;-67
2022/03/27 04:08:42;;;;;;;52.00;16.83;;;6.20;18.30;;;;;;4987548;28;20523;-67
2022/03/27 04:11:14;;;;;;;53.57;15.73;;;6.20;18.30;;;;;;4987237;28;20468;-67
2022/03/27 04:13:43;;;;;;;49.00;16.40;;;6.20;18.40;;;;;;4986596;28;20464;-67
2022/03/27 04:16:10;;;;;;;50.63;15.63;;;6.20;18.50;;;;;;4986935;28;20496;-67
2022/03/27 04:18:37;;;;;;;55.60;16.73;;;6.20;18.50;;;;;;4989342;28;20461;-67
2022/03/27 04:21:04;;;;;;;57.63;16.03;;;6.20;18.50;;;;;;4988030;28;20508;-67
2022/03/27 04:23:31;;;;;;;51.63;16.33;;;6.20;18.60;;;;;;4986230;28;21141;-67
2022/03/27 04:25:58;;;;;;;52.70;19.30;;;6.20;18.60;;;;;;4986754;28;20476;-67
2022/03/27 04:28:25;;;;;;;48.47;15.60;;;6.20;18.70;;;;;;4988576;28;20475;-67
2022/03/27 04:30:53;;;;;;;49.87;16.40;;;6.10;18.80;;;;;;4987889;28;20476;-67
2022/03/27 04:33:20;;;;;;;52.17;15.57;;;6.10;19.10;;;;;;4986304;28;21001;-67
2022/03/27 04:36:06;;;;;;;48.97;16.20;;;6.10;19.20;;;;;;4985987;28;20487;-67
2022/03/27 04:38:33;;;;;;;49.67;15.97;;;6.10;19.50;;;;;;4979468;28;20465;-67
2022/03/27 04:40:59;;;;;;;45.37;16.50;;;6.10;19.50;;;;;;4986626;28;20488;-67
2022/03/27 04:43:28;;;;;;;47.67;16.40;;;6.10;19.60;;;;;;4988277;28;20535;-68
2022/03/27 04:45:56;;;;;;;49.83;18.20;;;6.10;19.70;;;;;;4986714;28;20484;-67
2022/03/27 04:48:25;;;;;;;52.50;17.50;;;6.10;19.80;;;;;;4988359;28;20476;-67
2022/03/27 04:50:53;;;;;;;52.07;16.83;;;6.00;19.60;;;;;;4986475;28;20465;-67
2022/03/27 04:53:20;;;;;;;49.13;16.07;;;6.00;19.60;;;;;;4986468;28;20983;-67
2022/03/27 04:55:47;;;;;;;49.77;18.27;;;6.00;19.60;;;;;;4984744;28;20481;-67
2022/03/27 04:58:15;;;;;;;56.37;17.33;;;6.00;19.80;;;;;;4986753;28;20884;-67
2022/03/27 05:00:42;;;;;;;57.13;16.93;;;6.00;19.90;;;;;;4985452;28;20523;-67
2022/03/27 05:03:11;;;;;;;50.20;16.43;;;5.90;19.80;;;;;;4999920;28;20534;-67
2022/03/27 05:05:38;;;;;;;48.83;16.57;;;5.90;20.40;;;;;;4994636;28;20524;-67
2022/03/27 05:08:05;;;;;;;51.30;16.87;;;5.90;19.80;;;;;;4992134;28;20464;-67
2022/03/27 05:10:32;;;;;;;61.07;19.00;;;5.90;19.90;;;;;;4989002;28;20460;-67
2022/03/27 05:12:59;;;;;;;46.90;16.33;;;5.90;19.90;;;;;;4991965;28;20952;-66
2022/03/27 05:15:26;;;;;;;52.33;18.37;;;5.80;19.90;;;;;;4990204;28;20511;-66
2022/03/27 05:17:56;;;;;;;49.33;17.07;;;5.80;20.00;;;;;;4989917;28;20475;-66
2022/03/27 05:20:25;;;;;;;54.77;18.10;;;5.90;20.00;;;;;;4987711;28;21170;-66
2022/03/27 05:22:52;;;;;;;55.70;18.30;;;5.80;20.00;;;;;;4991745;28;20503;-67
2022/03/27 05:25:19;;;;;;;51.80;15.67;;;5.80;20.00;;;;;;4991409;28;20480;-67
2022/03/27 05:27:48;;;;;;;49.80;17.20;;;5.90;20.40;;;;;;4989965;28;20480;-66
2022/03/27 05:30:16;;;;;;;49.70;17.23;;;6.00;20.60;;;;;;4990850;28;20472;-67
2022/03/27 05:32:43;;;;;;;53.37;16.80;;;6.10;20.90;;;;;;4990631;28;20471;-67
2022/03/27 05:35:10;;;;;;;50.67;15.83;;;6.20;21.00;;;;;;4989848;28;20489;-67
2022/03/27 05:37:39;;;;;;;51.83;16.87;;;6.40;20.60;;;;;;4989867;28;20999;-67
2022/03/27 05:40:08;;;;;;;49.53;16.40;;;6.60;20.30;;;;;;4988576;28;20464;-67
2022/03/27 05:42:36;;;;;;;50.13;15.13;;;7.00;19.80;;;;;;4991016;28;20492;-67
2022/03/27 05:45:03;;;;;;;50.40;14.60;;;7.40;19.10;;;;;;4988546;28;21014;-67
2022/03/27 05:47:30;;;;;;;49.20;15.47;;;8.00;18.40;;;;;;4989425;28;20469;-67
2022/03/27 05:49:58;;;;;;;51.80;16.30;;;8.70;17.60;;;;;;4990479;28;20461;-67
2022/03/27 05:52:25;;;;;;;49.90;15.70;;;9.30;16.50;;;;;;4989381;28;20473;-67
2022/03/27 05:54:53;;;;;;;52.57;15.30;;;9.90;15.50;;;;;;4988160;28;20488;-68
2022/03/27 05:57:20;;;;;;;50.10;16.40;;;10.40;14.60;;;;;;4988615;28;20930;-67
2022/03/27 05:59:48;;;;;;;47.10;15.30;;;10.80;13.80;;;;;;4989487;28;20471;-67
2022/03/27 06:02:16;;;;;;;52.60;13.80;;;11.10;13.30;;;;;;4986634;28;21308;-67
2022/03/27 06:08:33;;;;;;;49.50;14.33;;;11.50;12.10;;;;;;4985023;28;20468;-68
2022/03/27 06:11:01;;;;;;;50.30;14.47;;;11.90;11.80;;;;;;4989474;28;20490;-67
2022/03/27 06:13:28;;;;;;;51.20;14.00;;;12.10;11.60;;;;;;4989164;28;20536;-67
2022/03/27 06:15:55;;;;;;;53.53;13.90;;;12.30;11.60;;;;;;4990687;28;20476;-67
2022/03/27 06:18:22;;;;;;;50.63;14.17;;;12.50;11.30;;;;;;4990918;28;20636;-67
2022/03/27 06:20:48;;;;;;;47.80;14.30;;;12.70;10.60;;;;;;4989396;28;20507;-67
2022/03/27 06:23:16;;;;;;;49.83;15.43;;;13.00;10.50;;;;;;4990867;28;20467;-67
2022/03/27 06:25:42;;;;;;;53.23;15.40;;;13.20;9.80;;;;;;4988309;28;20547;-67
2022/03/27 06:28:11;;;;;;;47.67;14.00;;;13.60;9.30;;;;;;4988517;28;20508;-67
2022/03/27 06:30:37;;;;;;;45.77;14.67;;;14.30;8.30;;;;;;4989045;28;20475;-67
2022/03/27 06:33:04;;;;;;;49.53;14.00;;;14.80;8.00;;;;;;4990683;28;20974;-67
2022/03/27 06:35:31;;;;;;;48.03;14.50;;;15.20;6.70;;;;;;4990276;28;20571;-68
2022/03/27 06:37:59;;;;;;;43.80;13.73;;;15.50;6.20;;;;;;4990244;28;20855;-68
2022/03/27 06:40:26;;;;;;;48.13;14.83;;;15.90;5.50;;;;;;4988633;28;20475;-68
2022/03/27 06:42:53;;;;;;;53.87;15.47;;;16.60;4.70;;;;;;4990279;28;20460;-68
2022/03/27 06:45:22;;;;;;;46.63;13.53;;;17.70;3.50;;;;;;4990832;28;20844;-68
2022/03/27 06:47:49;;;;;;;51.43;14.80;;;18.90;2.20;;;;;;4990059;28;20461;-68
2022/03/27 06:50:21;;;;;;;45.33;13.57;;;20.10;1.00;;;;;;4989654;28;21009;-68
2022/03/27 06:52:48;;;;;;;43.40;14.20;;;21.50;1.00;;;;;;4970346;28;20462;-68
2022/03/27 06:55:15;;;;;;;47.27;13.73;;;22.80;1.00;;;;;;4971155;28;20489;-68
2022/03/27 06:57:43;;;;;;;46.00;14.03;;;24.10;1.00;;;;;;4970383;28;20461;-68
2022/03/27 07:03:03;;;;;;;41.93;14.40;;;26.70;1.00;;;;;;4987427;28;20588;-68
2022/03/27 07:05:31;;;;;;;43.60;14.53;;;27.80;1.00;;;;;;4989932;28;20471;-69
2022/03/27 07:07:58;;;;;;;43.27;14.80;;;28.90;1.00;;;;;;4990418;28;20457;-68
2022/03/27 07:10:25;;;;;;;44.03;15.13;;;30.00;1.00;;;;;;4990153;28;20461;-69
2022/03/27 07:12:52;;;;;;;38.77;13.87;;;30.90;1.00;;;;;;4988234;28;20560;-69
2022/03/27 07:15:19;;;;;;;42.53;15.03;;;31.80;1.00;;;;;;4989517;28;20472;-69
2022/03/27 07:17:47;;;;;;;41.73;14.70;;;32.60;1.00;;;;;;4991718;28;20461;-69
2022/03/27 07:20:18;;;;;;;38.53;14.73;;;33.50;1.00;;;;;;4994835;28;20467;-69
2022/03/27 07:22:45;;;;;;;38.63;14.80;;;34.30;1.00;;;;;;4988805;28;20520;-69
2022/03/27 07:25:13;;;;;;;41.90;15.50;;;35.20;1.00;;;;;;4989295;28;20491;-69
2022/03/27 07:27:41;;;;;;;37.87;14.73;;;36.00;1.00;;;;;;4989001;28;20461;-69
2022/03/27 07:30:10;;;;;;;41.43;14.97;;;36.70;1.00;;;;;;4989845;28;20461;-69
2022/03/27 07:32:39;;;;;;;36.27;13.43;;;37.20;1.00;;;;;;4987229;28;20477;-69
2022/03/27 07:35:07;;;;;;;36.20;13.97;;;37.70;1.00;;;;;;4989583;28;20611;-69
2022/03/27 07:37:35;;;;;;;73.43;47.93;;;38.40;1.00;;;;;;4988860;28;20456;-69
2022/03/27 07:40:03;;;;;;;39.57;15.00;;;38.80;1.00;;;;;;4989385;28;20464;-70
2022/03/27 07:42:31;;;;;;;35.30;15.27;;;39.40;1.00;;;;;;4987296;28;20547;-70
2022/03/27 07:44:58;;;;;;;35.10;14.60;;;40.00;1.00;;;;;;4989282;28;20488;-70
2022/03/27 07:47:25;;;;;;;37.80;14.37;;;40.50;1.00;;;;;;4989306;28;20463;-70
2022/03/27 07:49:52;;;;;;;35.10;14.50;;;41.00;1.00;;;;;;4989200;28;20460;-70
2022/03/27 07:52:20;;;;;;;35.23;15.10;;;41.30;1.00;;;;;;4987658;28;20472;-69
2022/03/27 07:54:48;;;;;;;33.53;14.37;;;41.60;1.00;;;;;;4988286;28;20480;-70
2022/03/27 07:57:15;;;;;;;34.93;14.30;;;42.00;1.00;;;;;;4989443;28;20970;-70
2022/03/27 07:59:42;;;;;;;78.83;57.00;;;42.30;1.00;;;;;;4989093;28;21007;-69
2022/03/27 08:02:08;;;;;;;37.03;17.40;;;42.60;1.00;;;;;;4988728;28;20528;-70
2022/03/27 08:04:35;;;;;;;34.70;14.80;;;43.10;1.00;;;;;;4987863;28;20510;-70
2022/03/27 08:07:02;;;;;;;34.53;14.67;;;43.40;1.00;;;;;;4988093;28;20475;-70
2022/03/27 08:09:29;;;;;;;37.27;15.70;;;43.60;1.00;;;;;;4969700;28;20465;-70
2022/03/27 08:11:57;;;;;;;52.23;15.50;;;44.00;1.00;;;;;;4977989;28;20460;-71
2022/03/27 08:14:28;;;;;;;37.13;14.70;;;44.10;1.00;;;;;;4988653;28;21009;-70
2022/03/27 08:16:55;;;;;;;35.00;14.37;;;44.30;1.00;;;;;;4989083;28;20520;-70
2022/03/27 08:19:22;;;;;;;56.13;33.70;;;44.80;1.00;;;;;;4988236;28;20468;-70
2022/03/27 08:21:49;;;;;;;34.50;14.53;;;45.00;1.00;;;;;;4989401;28;20485;-70
2022/03/27 08:24:16;;;;;;;34.00;14.03;;;45.40;1.00;;;;;;4988632;28;21188;-70
2022/03/27 08:26:56;;;;;;;34.67;14.67;;;45.70;1.00;;;;;;4988541;28;20467;-70
2022/03/27 08:29:25;;;;;;;32.33;14.30;;;45.90;1.00;;;;;;4987808;28;20468;-70
2022/03/27 08:31:52;;;;;;;34.97;15.53;;;45.90;1.00;;;;;;4988626;28;20527;-70
2022/03/27 08:34:20;;;;;;;31.07;13.80;;;46.10;1.00;;;;;;4988662;28;20523;-71
2022/03/27 08:37:07;;;;;;;32.67;14.43;;;46.20;1.00;;;;;;4989613;28;20464;-70
2022/03/27 08:39:34;;;;;;;32.37;14.30;;;46.60;1.00;;;;;;4991307;28;20468;-70
2022/03/27 08:42:01;;;;;;;36.00;14.80;;;46.90;1.00;;;;;;4991377;28;20480;-71
2022/03/27 08:44:30;;;;;;;31.70;15.03;;;47.10;1.00;;;;;;4992018;28;21110;-71
2022/03/27 08:46:59;;;;;;;36.10;15.47;;;46.90;1.00;;;;;;4992755;28;20777;-71
2022/03/27 08:49:35;;;;;;;36.47;16.13;;;46.90;1.00;;;;;;4991354;28;20464;-70
2022/03/27 08:52:10;;;;;;;37.63;16.50;;;47.10;1.00;;;;;;4992949;28;20468;-71
2022/03/27 08:54:42;;;;;;;31.33;14.23;;;47.30;1.00;;;;;;4992301;28;20486;-71
2022/03/27 08:57:22;;;;;;;31.30;14.70;;;47.40;1.00;;;;;;4992187;28;20511;-71
2022/03/27 08:59:53;;;;;;;35.40;15.33;;;47.50;1.00;;;;;;4989568;28;20941;-71
2022/03/27 09:02:23;;;;;;;36.60;19.10;;;47.90;1.00;;;;;;4976881;28;20481;-71
2022/03/27 09:04:52;;;;;;;32.37;14.20;;;47.80;1.00;;;;;;4991698;28;20472;-71
2022/03/27 09:07:20;;;;;;;33.67;15.43;;;47.60;1.00;;;;;;4991828;28;20491;-70
2022/03/27 09:09:46;;;;;;;33.47;15.80;;;46.60;1.00;;;;;;4991581;28;20456;-71
2022/03/27 09:12:14;;;;;;;34.00;15.30;;;46.30;1.00;;;;;;4992022;28;20452;-70
2022/03/27 09:14:42;;;;;;;41.37;14.37;;;46.90;1.00;;;;;;4992266;28;20548;-70
2022/03/27 09:17:10;;;;;;;36.07;15.30;;;47.20;1.00;;;;;;4992213;28;20467;-70
2022/03/27 09:19:39;;;;;;;31.70;13.53;;;47.50;1.00;;;;;;4987661;28;20536;-70
2022/03/27 09:22:14;;;;;;;31.77;14.63;;;47.70;1.00;;;;;;4988549;28;20979;-70
2022/03/27 09:24:42;;;;;;;32.33;14.47;;;48.00;1.00;;;;;;4991356;28;20491;-70
2022/03/27 09:27:09;;;;;;;33.80;15.40;;;48.30;1.00;;;;;;4991502;28;20457;-70
2022/03/27 09:29:59;;;;;;;35.83;15.07;;;48.50;1.00;;;;;;4991318;28;20972;-70
2022/03/27 09:32:29;;;;;;;30.27;14.30;;;48.90;1.00;;;;;;4989663;28;20996;-71
2022/03/27 09:35:00;;;;;;;33.63;14.60;;;49.00;1.00;;;;;;5002324;28;20539;-71
2022/03/27 09:37:35;;;;;;;33.03;15.03;;;49.10;1.00;;;;;;4998543;28;20999;-71
2022/03/27 09:40:02;;;;;;;33.70;15.00;;;48.80;1.00;;;;;;4993111;28;20452;-71
2022/03/27 09:42:30;;;;;;;34.00;15.80;;;48.80;1.00;;;;;;4989669;28;20583;-71
2022/03/27 09:45:17;;;;;;;33.57;15.23;;;48.80;1.00;;;;;;4991431;28;20488;-71
2022/03/27 09:47:48;;;;;;;36.73;17.37;;;48.50;1.00;;;;;;4990769;28;20468;-71
2022/03/27 09:50:30;;;;;;;32.50;16.13;;;48.70;1.00;;;;;;4991712;28;20983;-71
2022/03/27 09:53:19;;;;;;;33.30;16.23;;;48.90;1.00;;;;;;4989287;28;20465;-70
2022/03/27 09:55:46;;;;;;;34.40;15.23;;;49.00;1.00;;;;;;4980482;28;20829;-71
2022/03/27 09:58:15;;;;;;;33.37;17.37;;;48.50;1.00;;;;;;4973143;28;20520;-70
2022/03/27 10:00:43;;;;;;;33.10;15.67;;;48.00;1.00;;;;;;4984544;28;20844;-70
2022/03/27 10:03:11;;;;;;;39.20;18.03;;;47.50;1.00;;;;;;4989383;28;20488;-70
2022/03/27 10:05:38;;;;;;;34.90;17.10;;;46.70;1.00;;;;;;4991514;28;20480;-70
2022/03/27 10:08:06;;;;;;;33.03;16.10;;;46.20;1.00;;;;;;4991362;28;20468;-70
2022/03/27 10:10:33;;;;;;;34.53;16.13;;;46.60;1.00;;;;;;4990920;28;20563;-71
2022/03/27 10:13:00;;;;;;;39.33;16.97;;;47.20;1.00;;;;;;4981582;28;20460;-70
2022/03/27 10:15:28;;;;;;;40.37;18.07;;;47.70;1.00;;;;;;4978666;28;20483;-71
2022/03/27 10:17:57;;;;;;;36.97;19.00;;;47.80;1.00;;;;;;4970925;28;20457;-70
2022/03/27 10:20:29;;;;;;;35.93;18.53;;;47.60;1.00;;;;;;4970080;28;20564;-70
2022/03/27 10:23:03;;;;;;;37.83;17.83;;;47.30;1.00;;;;;;4973713;28;20481;-70
2022/03/27 10:25:36;;;;;;;36.47;19.67;;;47.50;1.00;;;;;;4990153;28;20481;-70
2022/03/27 10:28:04;;;;;;;35.23;18.20;;;47.80;1.00;;;;;;4989538;28;20464;-70
2022/03/27 10:30:31;;;;;;;33.33;18.37;;;47.70;1.00;;;;;;4990207;28;20461;-70
2022/03/27 10:33:00;;;;;;;35.90;19.70;;;47.50;1.00;;;;;;4988185;28;20479;-70
2022/03/27 10:35:37;;;;;;;38.00;19.20;;;47.50;1.00;;;;;;4988917;28;21190;-70
2022/03/27 10:38:13;;;;;;;43.73;23.57;;;47.20;1.00;;;;;;4989766;28;20880;-70
2022/03/27 10:40:49;;;;;;;36.50;18.97;;;46.80;1.00;;;;;;4989396;28;20449;-70
2022/03/27 10:43:25;;;;;;;36.10;18.07;;;46.40;1.00;;;;;;4989493;28;20531;-69
2022/03/27 10:46:14;;;;;;;46.40;21.30;;;46.50;1.00;;;;;;4987542;28;20852;-70
2022/03/27 10:48:42;;;;;;;37.80;19.40;;;46.00;1.00;;;;;;4989854;28;20453;-70
2022/03/27 10:51:12;;;;;;;43.87;19.60;;;45.90;1.00;;;;;;4988985;28;20826;-69
2022/03/27 10:53:39;;;;;;;37.90;18.97;;;45.90;1.00;;;;;;4988931;28;20515;-70
2022/03/27 10:56:06;;;;;;;36.80;19.23;;;45.90;1.00;;;;;;4988379;28;20576;-69
2022/03/27 10:58:36;;;;;;;36.73;18.63;;;46.10;1.00;;;;;;4989687;28;20820;-70
2022/03/27 11:01:05;;;;;;;34.70;18.63;;;46.00;1.00;;;;;;4988057;28;20480;-69
2022/03/27 11:03:47;;;;;;;38.10;18.13;;;45.80;1.00;;;;;;4989293;28;20740;-69
2022/03/27 11:06:24;;;;;;;39.27;20.70;;;45.50;1.00;;;;;;4987743;28;20480;-69
2022/03/27 11:08:52;;;;;;;43.07;19.70;;;44.60;1.00;;;;;;4988736;28;20956;-69
2022/03/27 11:12:02;;;;;;;42.07;19.53;;;44.00;1.00;;;;;;4989244;28;20452;-70
2022/03/27 11:14:58;;;;;;;41.20;18.67;;;43.90;1.00;;;;;;4988814;28;21027;-69
2022/03/27 11:17:48;;;;;;;40.23;18.93;;;43.60;1.00;;;;;;4988227;28;20460;-69
2022/03/27 11:20:55;;;;;;;40.23;18.13;;;42.50;1.00;;;;;;4989209;28;20469;-69
2022/03/27 11:23:37;;;;;;;39.97;19.10;;;42.00;1.00;;;;;;4989495;28;20469;-70
2022/03/27 11:26:06;;;;;;;52.73;34.23;;;41.50;1.00;;;;;;4989247;28;20524;-69
2022/03/27 11:28:50;;;;;;;40.07;18.97;;;41.10;1.00;;;;;;4987621;28;20461;-71
2022/03/27 11:31:26;;;;;;;49.40;20.47;;;40.90;1.00;;;;;;4987437;28;20887;-71
2022/03/27 11:34:18;;;;;;;43.40;18.67;;;40.40;1.00;;;;;;4989296;28;20480;-71
2022/03/27 11:36:48;;;;;;;42.60;19.70;;;39.60;1.00;;;;;;4988716;28;20551;-71
2022/03/27 11:39:33;;;;;;;43.00;20.53;;;38.90;1.00;;;;;;4986963;28;20963;-71
2022/03/27 11:42:32;;;;;;;45.03;20.50;;;37.50;1.00;;;;;;4988804;28;20456;-70
2022/03/27 11:45:24;;;;;;;43.80;19.70;;;35.60;1.00;;;;;;4984312;28;20572;-70
2022/03/27 11:47:53;;;;;;;41.27;19.30;;;33.80;1.00;;;;;;4988609;28;20457;-70
2022/03/27 11:50:23;;;;;;;42.67;18.60;;;32.10;1.00;;;;;;4994764;28;20468;-69
2022/03/27 11:52:50;;;;;;;45.03;20.30;;;30.60;1.00;;;;;;4993913;28;20539;-70
2022/03/27 11:55:19;;;;;;;49.97;20.43;;;29.80;1.00;;;;;;4988723;28;20489;-70
2022/03/27 11:57:48;;;;;;;45.20;20.20;;;29.10;1.00;;;;;;4988440;28;20461;-69
2022/03/27 12:00:16;;;;;;;44.03;18.60;;;28.70;1.00;;;;;;4986628;28;20552;-70
2022/03/27 12:02:45;;;;;;;47.37;20.80;;;28.10;1.00;;;;;;4989013;28;20501;-70
2022/03/27 12:05:13;;;;;;;45.60;18.70;;;27.50;1.00;;;;;;4988442;28;21011;-69
2022/03/27 12:07:51;;;;;;;43.20;18.30;;;27.00;1.00;;;;;;4988729;28;20541;-69
2022/03/27 12:10:19;;;;;;;45.40;18.53;;;26.40;1.00;;;;;;4987802;28;20464;-69
2022/03/27 12:12:57;;;;;;;47.23;19.93;;;26.00;1.00;;;;;;4992088;28;20468;-69
2022/03/27 12:15:39;;;;;;;44.70;18.23;;;25.60;1.00;;;;;;4992777;28;20512;-69
2022/03/27 12:18:06;;;;;;;49.00;20.37;;;25.20;1.00;;;;;;4992353;28;20460;-69
2022/03/27 12:20:45;;;;;;;48.80;19.67;;;24.90;1.00;;;;;;4992333;28;20468;-69
2022/03/27 12:23:20;;;;;;;45.30;19.03;;;24.70;1.00;;;;;;4990200;28;20480;-69
2022/03/27 12:25:57;;;;;;;43.53;18.33;;;24.50;1.00;;;;;;4992019;28;20479;-68
2022/03/27 12:31:19;;;;;;;49.80;18.70;;;24.20;1.00;;;;;;5010117;28;20999;-69
2022/03/27 12:33:46;;;;;;;48.20;18.10;;;24.00;1.00;;;;;;4972582;28;20437;-68
2022/03/27 12:36:13;;;;;;;54.53;23.97;;;24.00;1.00;;;;;;4972696;28;20495;-68
2022/03/27 12:38:41;;;;;;;50.70;20.03;;;23.80;1.00;;;;;;4972009;28;20948;-68
2022/03/27 12:41:10;;;;;;;53.30;17.90;;;23.70;1.00;;;;;;4972505;28;20504;-69
2022/03/27 12:43:41;;;;;;;47.67;17.73;;;23.50;1.00;;;;;;4987846;28;20481;-69
2022/03/27 12:46:23;;;;;;;48.00;18.80;;;23.30;1.00;;;;;;4991738;28;20567;-69
2022/03/27 12:49:01;;;;;;;44.90;17.63;;;23.20;1.00;;;;;;4988551;28;20460;-70
2022/03/27 12:51:28;;;;;;;42.40;16.40;;;23.00;1.00;;;;;;4990803;28;20452;-68
2022/03/27 12:54:06;;;;;;;44.70;16.50;;;23.00;1.00;;;;;;4990534;28;20464;-68
2022/03/27 12:56:35;;;;;;;48.30;17.33;;;22.90;1.00;;;;;;4991046;28;20480;-68
2022/03/27 12:59:20;;;;;;;46.57;16.37;;;22.60;1.00;;;;;;4991722;28;20963;-69
2022/03/27 13:02:02;;;;;;;45.87;16.63;;;22.40;1.00;;;;;;4994884;28;20484;-71